createdAt,value
2023-04-25T00:01:18.090Z,12.13
2023-04-25T00:05:22.040Z,12.23
2023-04-25T00:09:25.267Z,13.27
2023-04-25T00:13:29.882Z,12.38
2023-04-25T00:17:32.761Z,12.07
2023-04-25T00:21:36.672Z,11.45
2023-04-25T00:25:39.617Z,11.55
2023-04-25T00:29:44.037Z,11.98
2023-04-25T00:33:46.932Z,12.48
2023-04-25T00:37:49.899Z,12.05
2023-04-25T00:41:55.798Z,12.35
2023-04-25T00:46:02.657Z,10.93
2023-04-25T00:50:06.033Z,11.77
2023-04-25T00:54:09.138Z,11.95
2023-04-25T00:58:12.382Z,11.45
2023-04-25T01:02:17.836Z,10.48
2023-04-25T01:06:21.117Z,10.70
2023-04-25T01:10:24.408Z,10.15
2023-04-25T01:14:27.895Z,9.48
2023-04-25T01:22:39.837Z,7.97
2023-04-25T01:26:46.144Z,8.38
2023-04-25T01:30:49.815Z,7.65
2023-04-25T01:34:52.683Z,8.50
2023-04-25T01:43:00.483Z,7.20
2023-04-25T01:47:03.602Z,8.20
2023-04-25T01:55:12.226Z,6.75
2023-04-25T01:59:15.342Z,6.20
2023-04-25T02:03:18.682Z,7.03
2023-04-25T02:07:24.075Z,6.85
2023-04-25T02:11:28.573Z,6.38
2023-04-25T02:15:31.540Z,6.03
2023-04-25T02:19:34.599Z,5.75
2023-04-25T02:23:37.694Z,5.88
2023-04-25T02:27:42.239Z,5.85
2023-04-25T02:31:45.559Z,5.80
2023-04-25T02:35:48.814Z,5.80
2023-04-25T02:39:51.779Z,5.75
2023-04-25T02:47:58.694Z,4.90
2023-04-25T02:52:01.784Z,4.70
2023-04-25T03:00:12.965Z,5.20
2023-04-25T03:04:16.173Z,5.22
2023-04-25T03:08:19.628Z,5.63
2023-04-25T03:12:22.724Z,6.15
2023-04-25T03:16:27.205Z,5.78
2023-04-25T03:20:30.199Z,5.93
2023-04-25T03:24:33.107Z,5.25
2023-04-25T03:28:36.088Z,6.00
2023-04-25T03:32:40.724Z,6.20
2023-04-25T03:36:44.095Z,6.28
2023-04-25T03:40:46.865Z,5.97
2023-04-25T03:44:49.782Z,5.72
2023-04-25T03:52:57.006Z,5.78
2023-04-25T04:01:04.362Z,7.00
2023-04-25T04:05:09.317Z,7.40
2023-04-25T04:09:13.562Z,7.95
2023-04-25T04:13:16.676Z,7.03
2023-04-25T04:17:19.520Z,6.32
2023-04-25T04:21:24.045Z,7.90
2023-04-25T04:25:27.365Z,8.45
2023-04-25T04:29:30.378Z,8.40
2023-04-25T04:37:39.193Z,8.27
2023-04-25T04:41:42.446Z,7.35
2023-04-25T04:49:48.812Z,9.63
2023-04-25T04:53:53.410Z,8.35
2023-04-25T04:57:56.735Z,8.68
2023-04-25T05:01:59.757Z,10.00
2023-04-25T05:06:05.243Z,8.48
2023-04-25T05:10:10.892Z,10.15
2023-04-25T05:14:15.935Z,10.00
2023-04-25T05:18:18.801Z,8.75
2023-04-25T05:22:21.703Z,10.40
2023-04-25T05:26:26.476Z,9.77
2023-04-25T05:30:30.051Z,9.60
2023-04-25T05:34:33.110Z,9.65
2023-04-25T05:42:40.379Z,9.80
2023-04-25T05:46:43.602Z,9.38
2023-04-25T05:50:46.664Z,9.27
2023-04-25T05:58:53.644Z,9.18
2023-04-25T06:02:57.483Z,9.98
2023-04-25T06:07:00.767Z,9.73
2023-04-25T06:11:03.871Z,9.90
2023-04-25T06:15:20.027Z,8.02
2023-04-25T06:19:30.145Z,8.50
2023-04-25T06:23:32.941Z,9.52
2023-04-25T06:27:36.258Z,8.73
2023-04-25T06:31:40.826Z,9.10
2023-04-25T06:35:44.368Z,7.32
2023-04-25T06:39:47.590Z,6.22
2023-04-25T06:43:51.070Z,6.68
2023-04-25T06:47:56.144Z,5.72
2023-04-25T06:52:01.986Z,7.40
2023-04-25T06:56:05.782Z,7.30
2023-04-25T07:00:10.831Z,6.30
2023-04-25T07:04:15.983Z,6.03
2023-04-25T07:08:20.135Z,5.43
2023-04-25T07:12:23.429Z,5.22
2023-04-25T07:20:32.214Z,3.30
2023-04-25T07:24:35.273Z,4.70
2023-04-25T07:28:38.555Z,5.88
2023-04-25T07:32:41.615Z,5.47
2023-04-25T07:36:46.132Z,4.93
2023-04-25T07:40:51.613Z,4.65
2023-04-25T07:44:54.789Z,5.22
2023-04-25T07:48:57.753Z,4.45
2023-04-25T07:57:04.961Z,4.38
2023-04-25T08:01:12.081Z,4.63
2023-04-25T08:05:22.986Z,4.25
2023-04-25T08:13:38.856Z,4.05
2023-04-25T08:17:47.560Z,4.85
2023-04-25T08:21:53.123Z,4.80
2023-04-25T08:25:57.410Z,5.57
2023-04-25T08:30:00.508Z,5.28
2023-04-25T08:34:03.848Z,5.53
2023-04-25T08:38:06.852Z,5.60
2023-04-25T08:46:17.089Z,5.38
2023-04-25T08:50:27.440Z,5.60
2023-04-25T08:54:35.295Z,5.97
2023-04-25T08:58:42.335Z,6.22
2023-04-25T09:02:46.123Z,5.88
2023-04-25T09:06:49.419Z,6.45
2023-04-25T09:10:55.074Z,6.10
2023-04-25T09:15:10.903Z,6.47
2023-04-25T09:19:38.230Z,6.00
2023-04-25T09:23:44.042Z,6.25
2023-04-25T09:27:54.568Z,6.50
2023-04-25T09:32:16.216Z,6.28
2023-04-25T09:36:29.453Z,6.30
2023-04-25T09:40:33.121Z,7.07
2023-04-25T09:44:36.148Z,6.68
2023-04-25T09:48:50.262Z,6.05
2023-04-25T09:53:06.888Z,6.65
2023-04-25T09:57:14.521Z,6.53
2023-04-25T10:01:19.325Z,6.32
2023-04-25T10:05:25.983Z,5.90
2023-04-25T10:09:33.218Z,5.60
2023-04-25T10:13:37.986Z,4.97
2023-04-25T10:17:43.944Z,5.63
2023-04-25T10:21:55.564Z,5.80
2023-04-25T10:25:59.226Z,5.20
2023-04-25T10:30:07.651Z,5.25
2023-04-25T10:34:12.001Z,5.53
2023-04-25T10:38:17.692Z,5.30
2023-04-25T10:42:20.780Z,4.90
2023-04-25T10:46:27.292Z,5.47
2023-04-25T10:50:40.926Z,4.60
2023-04-25T10:54:49.983Z,4.75
2023-04-25T10:58:54.040Z,5.82
2023-04-25T11:03:02.430Z,5.53
2023-04-25T11:07:15.166Z,5.18
2023-04-25T11:11:20.772Z,5.28
2023-04-25T11:15:26.155Z,5.25
2023-04-25T11:19:30.220Z,5.13
2023-04-25T11:23:36.425Z,5.07
2023-04-25T11:27:53.296Z,3.63
2023-04-25T11:31:59.397Z,4.20
2023-04-25T11:36:04.296Z,4.85
2023-04-25T11:40:10.085Z,4.40
2023-04-25T11:44:17.576Z,5.00
2023-04-25T11:48:26.082Z,4.45
2023-04-25T11:52:41.747Z,4.15
2023-04-25T11:56:46.078Z,5.15
2023-04-25T12:00:51.107Z,4.85
2023-04-25T12:04:53.996Z,4.45
2023-04-25T12:09:05.353Z,4.28
2023-04-25T12:13:23.047Z,3.97
2023-04-25T12:17:27.634Z,4.03
2023-04-25T12:21:35.406Z,4.28
2023-04-25T12:25:44.754Z,4.65
2023-04-25T12:29:54.428Z,4.95
2023-04-25T12:33:59.449Z,4.47
2023-04-25T12:38:02.966Z,4.47
2023-04-25T12:42:08.594Z,5.72
2023-04-25T12:46:12.804Z,5.63
2023-04-25T12:54:22.041Z,5.60
2023-04-25T12:58:26.107Z,5.80
2023-04-25T13:02:31.704Z,6.30
2023-04-25T13:06:37.161Z,7.00
2023-04-25T13:10:43.566Z,7.07
2023-04-25T13:14:46.625Z,6.18
2023-04-25T13:18:52.956Z,6.70
2023-04-25T13:22:58.494Z,6.35
2023-04-25T13:27:02.955Z,5.82
2023-04-25T13:31:05.849Z,6.20
2023-04-25T13:35:11.159Z,6.45
2023-04-25T13:39:15.986Z,7.03
2023-04-25T13:43:21.144Z,7.85
2023-04-25T13:47:27.961Z,7.60
2023-04-25T13:51:32.711Z,6.70
2023-04-25T13:55:38.582Z,7.63
2023-04-25T13:59:42.937Z,7.13
2023-04-25T14:03:46.716Z,8.13
2023-04-25T14:07:49.768Z,7.35
2023-04-25T14:11:54.746Z,7.80
2023-04-25T14:15:59.627Z,6.82
2023-04-25T14:20:02.725Z,7.93
2023-04-25T14:24:08.920Z,7.53
2023-04-25T14:28:13.710Z,5.25
2023-04-25T14:32:19.700Z,6.55
2023-04-25T14:36:22.825Z,5.68
2023-04-25T14:40:26.130Z,5.25
2023-04-25T14:44:30.556Z,5.53
2023-04-25T14:48:33.660Z,4.93
2023-04-25T14:52:37.666Z,5.63
2023-04-25T14:56:40.679Z,4.45
2023-04-25T15:00:45.686Z,4.65
2023-04-25T15:04:48.827Z,4.85
2023-04-25T15:08:51.912Z,5.75
2023-04-25T15:12:55.738Z,5.38
2023-04-25T15:17:00.327Z,5.85
2023-04-25T15:21:03.715Z,8.27
2023-04-25T15:25:07.896Z,8.07
2023-04-25T15:29:11.061Z,6.50
2023-04-25T15:37:19.984Z,7.65
2023-04-25T15:41:26.022Z,7.20
2023-04-25T15:45:33.345Z,7.32
2023-04-25T15:49:38.039Z,7.75
2023-04-25T15:53:41.246Z,8.60
2023-04-25T15:57:44.494Z,7.45
2023-04-25T16:01:47.534Z,8.40
2023-04-25T16:05:53.080Z,7.25
2023-04-25T16:09:56.014Z,7.60
2023-04-25T16:13:59.300Z,8.05
2023-04-25T16:22:07.024Z,7.80
2023-04-25T16:26:10.171Z,8.45
2023-04-25T16:30:14.356Z,8.85
2023-04-25T16:34:17.264Z,9.15
2023-04-25T16:42:25.471Z,8.68
2023-04-25T16:46:32.052Z,8.63
2023-04-25T16:50:36.415Z,9.73
2023-04-25T16:54:41.306Z,9.02
2023-04-25T16:58:44.035Z,8.57
2023-04-25T17:02:47.648Z,10.00
2023-04-25T17:06:50.745Z,10.45
2023-04-25T17:10:57.684Z,9.98
2023-04-25T17:15:04.364Z,9.23
2023-04-25T17:19:07.727Z,11.63
2023-04-25T17:23:10.659Z,10.75
2023-04-25T17:27:17.649Z,10.10
2023-04-25T17:31:20.736Z,10.60
2023-04-25T17:35:23.873Z,9.88
2023-04-25T17:43:33.287Z,10.55
2023-04-25T17:47:39.478Z,11.35
2023-04-25T17:51:42.518Z,12.13
2023-04-25T17:59:49.519Z,10.13
2023-04-25T18:03:55.476Z,10.93
2023-04-25T18:07:58.636Z,11.32
2023-04-25T18:16:06.901Z,12.35
2023-04-25T18:20:13.899Z,11.73
2023-04-25T18:24:18.199Z,12.70
2023-04-25T18:28:22.342Z,10.98
2023-04-25T18:32:28.593Z,11.88
2023-04-25T18:36:31.740Z,14.20
2023-04-25T18:44:42.278Z,12.00
2023-04-25T18:48:47.480Z,12.40
2023-04-25T18:52:50.789Z,12.23
2023-04-25T18:56:55.939Z,13.43
2023-04-25T19:00:58.479Z,11.98
2023-04-25T19:05:03.010Z,12.93
2023-04-25T19:09:07.883Z,12.60
2023-04-25T19:13:12.968Z,13.57
2023-04-25T19:17:16.053Z,12.30
2023-04-25T19:21:21.548Z,11.55
2023-04-25T19:25:26.560Z,13.13
2023-04-25T19:29:33.361Z,12.80
2023-04-25T19:33:36.452Z,13.27
2023-04-25T19:41:50.380Z,11.95
2023-04-25T19:45:58.867Z,13.73
2023-04-25T19:50:01.772Z,16.05
2023-04-25T19:54:08.640Z,16.90
2023-04-25T19:58:14.714Z,18.08
2023-04-25T20:02:21.128Z,18.42
2023-04-25T20:06:24.124Z,17.73
2023-04-25T20:10:28.740Z,17.42
2023-04-25T20:14:33.097Z,15.55
2023-04-25T20:18:36.319Z,15.95
2023-04-25T20:22:40.806Z,16.25
2023-04-25T20:26:45.061Z,15.20
2023-04-25T20:30:48.425Z,14.48
2023-04-25T20:34:53.874Z,13.55
2023-04-25T20:38:57.348Z,12.15
2023-04-25T20:43:05.599Z,12.48
2023-04-25T20:47:09.626Z,13.25
2023-04-25T20:51:13.099Z,14.00
2023-04-25T20:55:18.198Z,13.63
2023-04-25T20:59:25.724Z,14.05
2023-04-25T21:03:29.455Z,13.57
2023-04-25T21:07:32.717Z,15.13
2023-04-25T21:11:35.745Z,14.75
2023-04-25T21:15:41.563Z,15.05
2023-04-25T21:19:44.986Z,18.23
2023-04-25T21:23:50.844Z,15.27
2023-04-25T21:27:54.492Z,17.38
2023-04-25T21:31:58.796Z,13.50
2023-04-25T21:36:02.404Z,12.10
2023-04-25T21:40:06.442Z,10.95
2023-04-25T21:44:14.620Z,9.73
2023-04-25T21:48:18.882Z,9.18
2023-04-25T21:52:22.043Z,4.60
2023-04-25T21:56:25.017Z,8.98
2023-04-25T22:00:28.019Z,8.02
2023-04-25T22:04:32.871Z,7.65
2023-04-25T22:08:37.193Z,4.13
2023-04-25T22:12:40.674Z,7.78
2023-04-25T22:16:43.591Z,6.93
2023-04-25T22:20:48.198Z,6.13
2023-04-25T22:24:51.576Z,6.25
2023-04-25T22:28:54.680Z,5.40
2023-04-25T22:32:58.088Z,5.25
2023-04-25T22:37:02.498Z,5.50
2023-04-25T22:41:13.108Z,5.63
2023-04-25T22:45:16.233Z,5.18
2023-04-25T22:49:19.161Z,6.53
2023-04-25T22:53:23.508Z,4.93
2023-04-25T22:57:26.435Z,6.13
2023-04-25T23:01:29.638Z,6.40
2023-04-25T23:09:37.522Z,6.63
2023-04-25T23:13:40.508Z,6.18
2023-04-25T23:17:43.725Z,6.03
2023-04-25T23:21:46.644Z,6.60
2023-04-25T23:25:50.769Z,5.72
2023-04-25T23:29:56.752Z,5.45
2023-04-25T23:33:59.889Z,5.30
2023-04-25T23:42:07.230Z,5.65
2023-04-25T23:46:10.401Z,6.30
2023-04-25T23:50:13.439Z,6.53
2023-04-25T23:54:20.204Z,5.70
2023-04-25T23:58:24.676Z,6.03
